Morgantown Municipal Walter L. Bill Hart Field Morgantown US
ICAO: KMGW
IATA: MGW
Category: Medium
Scheduled Services: Yes

Elevation: 1248 ft
TransAlt. 18000 ft.

Airport Communications:
CLARKSBURG APP/DEP:121.15
ASOS:120.675
CTAF:125.1
GND:121.7
ELKINS RDO:122.6
TWR:125.1
UNICOM:122.95

KMGW Zoom In..

If you have problems with the map follow the link
https://www.worldairports.se/pages/airport.php?
ICAO=KMGW

Runways:

(A) RW 18 length 5199 ft width 150 ft
ILS 108.50 / hdg 181

(B) RW 36 length 5199 ft width 150 ft
---- / hdg 1

Location; KMGW
Day. 19 / Time. 13.53 Zulu
* Altimeter: 30.07
* Temperature: 04° c. 39.2°f.
* Wind from: 000° Speed 00 kn.
Dewpoint: 03° c.
Visibility: 6 Statute Miles.
Clouds: Broken 5000 ft.
Conditions: Mist.

KMGW 191353Z 00000KT 6SM BR BKN050 04/03 A3007 RMK AO2 SLP188 T00440028


Wind - Calm.

 
 
jpsmedia.com for Web Design worldairports.se 2018   terms of use